createdAt,value
2022-10-13T00:00:58.642Z,30.80
2022-10-13T00:03:25.399Z,35.30
2022-10-13T00:05:52.278Z,33.47
2022-10-13T00:08:21.511Z,39.50
2022-10-13T00:10:50.081Z,38.08
2022-10-13T00:15:45.414Z,33.40
2022-10-13T00:18:12.342Z,33.15
2022-10-13T00:20:48.797Z,28.25
2022-10-13T00:23:16.474Z,26.33
2022-10-13T00:25:44.910Z,32.15
2022-10-13T00:28:11.871Z,33.22
2022-10-13T00:30:38.989Z,34.65
2022-10-13T00:33:05.610Z,31.83
2022-10-13T00:35:32.611Z,32.13
2022-10-13T00:37:59.248Z,33.65
2022-10-13T00:40:25.714Z,38.35
2022-10-13T00:42:52.158Z,28.98
2022-10-13T00:45:27.258Z,32.00
2022-10-13T00:50:28.913Z,27.17
2022-10-13T00:52:57.760Z,34.70
2022-10-13T00:55:29.531Z,30.88
2022-10-13T00:58:02.759Z,30.33
2022-10-13T01:00:32.920Z,27.63
2022-10-13T01:02:59.447Z,29.02
2022-10-13T01:09:56.893Z,26.88
2022-10-13T01:12:37.597Z,28.25
2022-10-13T01:15:16.218Z,32.83
2022-10-13T01:17:56.217Z,30.13
2022-10-13T01:20:32.632Z,28.58
2022-10-13T01:23:20.881Z,28.02
2022-10-13T01:26:27.737Z,28.00
2022-10-13T01:29:22.256Z,27.90
2022-10-13T01:32:11.679Z,28.73
2022-10-13T01:34:53.950Z,26.83
2022-10-13T01:37:30.100Z,27.60
2022-10-13T01:40:26.424Z,29.40
2022-10-13T01:43:08.007Z,29.90
2022-10-13T01:45:48.776Z,28.02
2022-10-13T01:48:17.883Z,30.45
2022-10-13T01:50:45.011Z,31.50
2022-10-13T01:53:13.678Z,33.20
2022-10-13T01:58:20.835Z,30.98
2022-10-13T02:01:01.323Z,28.45
2022-10-13T02:03:38.536Z,26.60
2022-10-13T02:06:16.718Z,27.55
2022-10-13T02:08:45.889Z,31.27
2022-10-13T02:11:18.397Z,27.98
2022-10-13T02:13:57.706Z,36.17
2022-10-13T02:16:25.336Z,31.88
2022-10-13T02:18:52.708Z,33.60
2022-10-13T02:21:19.407Z,30.30
2022-10-13T02:23:45.951Z,38.33
2022-10-13T02:26:13.376Z,43.38
2022-10-13T02:28:40.692Z,46.78
2022-10-13T02:31:10.537Z,41.83
2022-10-13T02:33:37.209Z,46.72
2022-10-13T02:36:03.794Z,43.17
2022-10-13T02:38:30.886Z,38.78
2022-10-13T02:40:57.479Z,49.42
2022-10-13T02:43:23.848Z,39.70
2022-10-13T02:45:50.212Z,45.72
2022-10-13T02:48:16.608Z,45.38
2022-10-13T02:50:43.032Z,42.53
2022-10-13T02:53:09.428Z,47.72
2022-10-13T02:55:35.827Z,46.75
2022-10-13T02:58:02.198Z,49.60
2022-10-13T03:00:28.606Z,45.97
2022-10-13T03:02:54.997Z,38.85
2022-10-13T03:05:21.565Z,42.75
2022-10-13T03:07:47.986Z,36.95
2022-10-13T03:10:14.427Z,36.42
2022-10-13T03:12:40.820Z,40.90
2022-10-13T03:15:08.001Z,42.10
2022-10-13T03:17:34.422Z,45.15
2022-10-13T03:20:00.828Z,47.40
2022-10-13T03:22:27.173Z,54.78
2022-10-13T03:24:53.523Z,45.80
2022-10-13T03:27:20.777Z,45.58
2022-10-13T03:29:47.165Z,50.15
2022-10-13T03:32:13.617Z,46.10
2022-10-13T03:34:39.987Z,52.35
2022-10-13T03:37:06.474Z,48.47
2022-10-13T03:39:32.889Z,47.47
2022-10-13T03:41:59.343Z,44.20
2022-10-13T03:44:25.803Z,46.65
2022-10-13T03:46:52.893Z,42.90
2022-10-13T03:49:19.269Z,44.08
2022-10-13T03:51:45.879Z,47.67
2022-10-13T03:54:12.870Z,46.28
2022-10-13T03:56:40.330Z,53.08
2022-10-13T03:59:07.189Z,51.78
2022-10-13T04:01:34.378Z,50.95
2022-10-13T04:04:02.823Z,48.00
2022-10-13T04:06:30.400Z,52.95
2022-10-13T04:08:57.392Z,52.58
2022-10-13T04:11:24.012Z,49.92
2022-10-13T04:13:50.440Z,59.35
2022-10-13T04:16:20.291Z,54.33
2022-10-13T04:18:56.284Z,50.17
2022-10-13T04:21:23.650Z,50.88
2022-10-13T04:23:50.503Z,44.80
2022-10-13T04:26:19.382Z,54.75
2022-10-13T04:28:54.327Z,51.17
2022-10-13T04:31:22.174Z,46.17
2022-10-13T04:33:49.327Z,53.05
2022-10-13T04:36:16.615Z,50.65
2022-10-13T04:38:43.770Z,52.30
2022-10-13T04:41:11.469Z,47.05
2022-10-13T04:43:37.873Z,47.70
2022-10-13T04:46:09.755Z,42.53
2022-10-13T04:48:36.208Z,48.35
2022-10-13T04:51:05.447Z,50.08
2022-10-13T04:53:32.507Z,47.70
2022-10-13T04:56:05.222Z,45.65
2022-10-13T04:58:32.741Z,48.72
2022-10-13T05:01:01.800Z,44.45
2022-10-13T05:03:29.164Z,41.72
2022-10-13T05:05:55.587Z,45.47
2022-10-13T05:08:22.188Z,38.30
2022-10-13T05:10:58.492Z,42.85
2022-10-13T05:13:26.277Z,40.85
2022-10-13T05:15:52.780Z,49.05
2022-10-13T05:18:19.383Z,49.28
2022-10-13T05:20:46.844Z,47.28
2022-10-13T05:23:14.455Z,50.10
2022-10-13T05:25:41.053Z,47.08
2022-10-13T05:28:08.566Z,61.60
2022-10-13T05:30:35.559Z,43.50
2022-10-13T05:33:01.978Z,42.90
2022-10-13T05:35:28.634Z,49.95
2022-10-13T05:37:55.055Z,49.92
2022-10-13T05:40:21.472Z,46.95
2022-10-13T05:42:51.036Z,47.55
2022-10-13T05:45:19.533Z,46.97
2022-10-13T05:50:12.302Z,51.10
2022-10-13T05:52:38.884Z,47.78
2022-10-13T05:55:08.476Z,48.00
2022-10-13T05:57:38.297Z,47.70
2022-10-13T06:00:10.328Z,48.50
2022-10-13T06:02:44.706Z,43.25
2022-10-13T06:05:14.726Z,47.72
2022-10-13T06:07:42.615Z,44.17
2022-10-13T06:10:10.429Z,43.28
2022-10-13T06:12:37.215Z,44.65
2022-10-13T06:15:04.087Z,47.65
2022-10-13T06:17:30.606Z,47.08
2022-10-13T06:19:57.030Z,44.40
2022-10-13T06:22:23.483Z,43.95
2022-10-13T06:24:49.902Z,50.03
2022-10-13T06:27:16.390Z,39.95
2022-10-13T06:29:42.795Z,49.17
2022-10-13T06:32:09.374Z,43.97
2022-10-13T06:34:35.786Z,46.58
2022-10-13T06:37:02.234Z,42.65
2022-10-13T06:39:28.675Z,42.35
2022-10-13T06:41:55.402Z,48.55
2022-10-13T06:44:21.879Z,52.03
2022-10-13T06:46:48.309Z,44.78
2022-10-13T06:49:14.801Z,39.63
2022-10-13T06:51:41.394Z,43.13
2022-10-13T06:54:07.810Z,47.42
2022-10-13T06:56:34.254Z,38.65
2022-10-13T06:59:00.676Z,41.28
2022-10-13T07:01:27.210Z,43.22
2022-10-13T07:03:53.636Z,41.10
2022-10-13T07:06:20.121Z,43.65
2022-10-13T07:08:46.689Z,41.15
2022-10-13T07:11:16.186Z,39.85
2022-10-13T07:13:46.396Z,39.22
2022-10-13T07:16:14.690Z,41.80
2022-10-13T07:18:41.164Z,40.67
2022-10-13T07:21:07.673Z,42.72
2022-10-13T07:23:36.711Z,41.03
2022-10-13T07:26:07.806Z,44.78
2022-10-13T07:28:34.373Z,42.28
2022-10-13T07:31:00.873Z,42.83
2022-10-13T07:33:27.340Z,45.65
2022-10-13T07:35:53.729Z,39.85
2022-10-13T07:38:20.333Z,39.08
2022-10-13T07:40:46.765Z,39.83
2022-10-13T07:43:13.341Z,36.03
2022-10-13T07:45:39.810Z,38.92
2022-10-13T07:48:06.537Z,55.08
2022-10-13T07:50:32.992Z,41.20
2022-10-13T07:52:59.490Z,41.03
2022-10-13T07:55:26.036Z,32.08
2022-10-13T07:57:52.482Z,42.25
2022-10-13T08:00:19.029Z,36.28
2022-10-13T08:02:48.927Z,37.08
2022-10-13T08:05:15.391Z,37.17
2022-10-13T08:07:41.992Z,31.13
2022-10-13T08:10:09.034Z,32.55
2022-10-13T08:12:36.769Z,34.58
2022-10-13T08:15:06.249Z,36.58
2022-10-13T08:17:33.690Z,36.17
2022-10-13T08:20:00.156Z,33.90
2022-10-13T08:22:28.368Z,31.83
2022-10-13T08:27:37.072Z,30.58
2022-10-13T08:30:11.632Z,30.85
2022-10-13T08:32:38.057Z,40.22
2022-10-13T08:35:04.822Z,32.50
2022-10-13T08:37:31.238Z,31.75
2022-10-13T08:39:57.767Z,38.58
2022-10-13T08:42:24.290Z,39.47
2022-10-13T08:45:36.387Z,33.50
2022-10-13T08:47:48.848Z,34.22
2022-10-13T08:50:20.137Z,37.15
2022-10-13T08:52:52.631Z,29.50
2022-10-13T08:55:34.380Z,41.03
2022-10-13T08:58:02.771Z,37.67
2022-10-13T09:03:18.810Z,29.80
2022-10-13T09:06:11.220Z,28.55
2022-10-13T09:08:46.937Z,37.25
2022-10-13T09:11:13.594Z,38.38
2022-10-13T09:13:40.338Z,32.10
2022-10-13T09:16:07.540Z,38.85
2022-10-13T09:18:34.678Z,28.60
2022-10-13T09:21:18.728Z,29.73
2022-10-13T09:23:45.618Z,30.60
2022-10-13T09:26:20.358Z,34.50
2022-10-13T09:28:47.151Z,29.67
2022-10-13T09:31:18.438Z,28.00
2022-10-13T09:33:45.765Z,26.92
2022-10-13T09:36:14.589Z,30.10
2022-10-13T09:38:44.954Z,28.67
2022-10-13T09:41:19.670Z,30.65
2022-10-13T09:43:45.999Z,60.80
2022-10-13T09:46:25.851Z,32.15
2022-10-13T09:48:55.268Z,35.95
2022-10-13T09:51:33.854Z,25.90
2022-10-13T09:54:00.636Z,25.98
2022-10-13T09:56:35.733Z,31.02
2022-10-13T09:59:31.157Z,30.40
2022-10-13T10:02:00.441Z,25.10
2022-10-13T10:04:35.421Z,37.55
2022-10-13T10:07:11.161Z,28.75
2022-10-13T10:10:01.755Z,25.95
2022-10-13T10:12:30.865Z,30.88
2022-10-13T10:14:57.507Z,32.95
2022-10-13T10:18:03.004Z,28.58
2022-10-13T10:20:45.357Z,28.33
2022-10-13T10:23:30.330Z,28.02
2022-10-13T10:26:06.010Z,28.30
2022-10-13T10:28:50.539Z,28.52
2022-10-13T10:31:24.234Z,47.80
2022-10-13T10:34:18.615Z,29.20
2022-10-13T10:37:00.831Z,26.73
2022-10-13T10:39:38.390Z,25.73
2022-10-13T10:42:42.126Z,32.05
2022-10-13T10:45:22.608Z,27.48
2022-10-13T10:47:53.968Z,29.92
2022-10-13T10:50:21.992Z,25.85
2022-10-13T10:53:06.247Z,28.55
2022-10-13T10:55:43.826Z,31.88
2022-10-13T10:58:16.121Z,25.58
2022-10-13T11:00:53.232Z,28.90
2022-10-13T11:03:34.347Z,34.47
2022-10-13T11:06:21.641Z,31.13
2022-10-13T11:08:49.465Z,36.03
2022-10-13T11:11:37.433Z,28.85
2022-10-13T11:14:07.359Z,30.15
2022-10-13T11:16:37.780Z,80.85
2022-10-13T11:19:08.408Z,89.75
2022-10-13T11:21:52.930Z,29.35
2022-10-13T11:24:39.345Z,36.58
2022-10-13T11:27:09.189Z,30.77
2022-10-13T11:29:45.648Z,37.28
2022-10-13T11:32:36.208Z,28.48
2022-10-13T11:35:05.707Z,28.02
2022-10-13T11:38:05.765Z,31.48
2022-10-13T11:40:39.931Z,39.58
2022-10-13T11:43:47.815Z,34.00
2022-10-13T11:46:14.312Z,31.33
2022-10-13T11:48:52.597Z,27.50
2022-10-13T11:51:47.112Z,30.75
2022-10-13T11:54:24.219Z,29.42
2022-10-13T11:56:53.245Z,35.75
2022-10-13T11:59:39.540Z,26.52
2022-10-13T12:02:19.127Z,26.88
2022-10-13T12:05:19.260Z,21.67
2022-10-13T12:07:47.530Z,24.25
2022-10-13T12:12:48.886Z,21.20
2022-10-13T12:15:36.908Z,24.52
2022-10-13T12:18:21.650Z,21.38
2022-10-13T12:20:56.264Z,27.40
2022-10-13T12:25:56.516Z,26.67
2022-10-13T12:28:23.912Z,19.63
2022-10-13T12:30:56.149Z,18.77
2022-10-13T12:33:32.842Z,27.73
2022-10-13T12:36:18.734Z,22.70
2022-10-13T12:38:54.093Z,21.67
2022-10-13T12:41:26.292Z,27.98
2022-10-13T12:43:53.796Z,27.45
2022-10-13T12:46:43.161Z,26.80
2022-10-13T12:49:16.021Z,19.10
2022-10-13T12:51:45.844Z,24.73
2022-10-13T12:54:20.761Z,28.15
2022-10-13T12:56:47.364Z,27.00
2022-10-13T12:59:19.109Z,25.67
2022-10-13T13:01:52.080Z,23.27
2022-10-13T13:04:21.603Z,30.38
2022-10-13T13:07:02.765Z,26.88
2022-10-13T13:09:34.342Z,24.80
2022-10-13T13:12:25.782Z,26.58
2022-10-13T13:14:55.053Z,29.00
2022-10-13T13:17:53.381Z,24.77
2022-10-13T13:20:30.988Z,26.08
2022-10-13T13:22:57.452Z,24.40
2022-10-13T13:25:24.503Z,27.10
2022-10-13T13:27:51.898Z,27.42
2022-10-13T13:30:21.058Z,26.15
2022-10-13T13:32:47.656Z,28.60
2022-10-13T13:35:14.241Z,24.98
2022-10-13T13:37:47.853Z,21.98
2022-10-13T13:40:17.313Z,21.92
2022-10-13T13:42:43.871Z,24.45
2022-10-13T13:45:14.962Z,23.67
2022-10-13T13:47:41.389Z,22.23
2022-10-13T13:50:18.818Z,22.67
2022-10-13T13:52:45.252Z,26.55
2022-10-13T13:55:11.835Z,29.25
2022-10-13T13:57:38.247Z,23.52
2022-10-13T14:00:06.029Z,23.95
2022-10-13T14:02:32.496Z,21.88
2022-10-13T14:04:58.897Z,29.95
2022-10-13T14:07:25.451Z,22.50
2022-10-13T14:09:53.169Z,21.75
2022-10-13T14:12:20.457Z,23.27
2022-10-13T14:14:47.057Z,22.48
2022-10-13T14:17:13.474Z,26.85
2022-10-13T14:19:41.778Z,23.13
2022-10-13T14:22:09.657Z,26.27
2022-10-13T14:24:36.191Z,21.08
2022-10-13T14:27:02.642Z,24.35
2022-10-13T14:29:29.049Z,27.55
2022-10-13T14:31:55.455Z,35.70
2022-10-13T14:34:21.936Z,34.63
2022-10-13T14:36:48.371Z,23.65
2022-10-13T14:39:14.757Z,19.30
2022-10-13T14:41:41.214Z,31.98
2022-10-13T14:44:07.633Z,18.42
2022-10-13T14:46:34.048Z,25.52
2022-10-13T14:49:00.528Z,22.92
2022-10-13T14:51:26.955Z,23.02
2022-10-13T14:53:53.330Z,19.08
2022-10-13T14:56:22.640Z,20.33
2022-10-13T14:58:51.041Z,23.85
2022-10-13T15:01:18.346Z,19.38
2022-10-13T15:03:45.050Z,20.92
2022-10-13T15:06:17.052Z,22.67
2022-10-13T15:08:44.247Z,21.35
2022-10-13T15:11:14.891Z,30.92
2022-10-13T15:13:41.795Z,18.40
2022-10-13T15:16:15.828Z,19.92
2022-10-13T15:18:42.688Z,20.88
2022-10-13T15:21:09.165Z,21.00
2022-10-13T15:23:35.562Z,24.08
2022-10-13T15:26:03.334Z,27.33
2022-10-13T15:28:41.323Z,21.83
2022-10-13T15:31:08.174Z,22.13
2022-10-13T15:33:35.312Z,27.35
2022-10-13T15:36:01.731Z,27.85
2022-10-13T15:38:28.109Z,24.35
2022-10-13T15:40:59.644Z,21.55
2022-10-13T15:43:26.598Z,24.58
2022-10-13T15:45:55.736Z,21.17
2022-10-13T15:48:22.763Z,31.98
2022-10-13T15:50:49.260Z,20.88
2022-10-13T15:53:15.809Z,26.00
2022-10-13T15:55:42.259Z,19.77
2022-10-13T15:58:13.435Z,17.67
2022-10-13T16:00:40.679Z,23.45
2022-10-13T16:03:07.393Z,24.65
2022-10-13T16:05:34.659Z,23.15
2022-10-13T16:08:03.536Z,28.48
2022-10-13T16:10:29.942Z,23.10
2022-10-13T16:12:56.569Z,24.73
2022-10-13T16:15:22.992Z,25.15
2022-10-13T16:17:51.754Z,26.52
2022-10-13T16:20:18.172Z,25.73
2022-10-13T16:22:44.635Z,22.08
2022-10-13T16:25:11.190Z,19.48
2022-10-13T16:27:40.493Z,22.25
2022-10-13T16:30:10.763Z,27.80
2022-10-13T16:32:39.028Z,22.65
2022-10-13T16:37:32.486Z,23.15
2022-10-13T16:39:58.990Z,23.38
2022-10-13T16:42:25.478Z,19.33
2022-10-13T16:44:51.899Z,22.25
2022-10-13T16:47:18.880Z,24.58
2022-10-13T16:49:45.489Z,23.38
2022-10-13T16:52:12.269Z,21.40
2022-10-13T16:54:38.740Z,25.38
2022-10-13T16:57:05.126Z,24.80
2022-10-13T16:59:31.668Z,21.15
2022-10-13T17:01:59.261Z,24.80
2022-10-13T17:04:25.816Z,20.48
2022-10-13T17:06:52.215Z,19.20
2022-10-13T17:09:18.654Z,20.58
2022-10-13T17:11:45.125Z,30.70
2022-10-13T17:14:11.685Z,21.95
2022-10-13T17:16:38.113Z,20.38
2022-10-13T17:19:04.989Z,22.95
2022-10-13T17:21:31.441Z,21.08
2022-10-13T17:23:57.966Z,24.95
2022-10-13T17:26:24.772Z,22.33
2022-10-13T17:28:51.303Z,21.13
2022-10-13T17:31:20.621Z,17.50
2022-10-13T17:33:47.669Z,22.13
2022-10-13T17:36:19.901Z,18.77
2022-10-13T17:38:48.183Z,18.30
2022-10-13T17:41:15.196Z,21.65
2022-10-13T17:43:41.897Z,17.95
2022-10-13T17:46:35.591Z,18.60
2022-10-13T17:49:03.265Z,22.20
2022-10-13T17:51:29.832Z,14.77
2022-10-13T17:53:58.648Z,18.67
2022-10-13T17:56:25.586Z,21.00
2022-10-13T17:58:52.232Z,21.40
2022-10-13T18:01:25.685Z,19.77
2022-10-13T18:03:57.130Z,18.77
2022-10-13T18:06:24.251Z,23.90
2022-10-13T18:08:51.328Z,18.33
2022-10-13T18:11:20.431Z,17.23
2022-10-13T18:13:47.231Z,26.33
2022-10-13T18:16:17.517Z,19.55
2022-10-13T18:18:45.045Z,21.55
2022-10-13T18:21:13.652Z,22.90
2022-10-13T18:23:40.641Z,21.55
2022-10-13T18:26:13.259Z,17.45
2022-10-13T18:28:43.203Z,22.92
2022-10-13T18:31:12.315Z,19.33
2022-10-13T18:33:39.325Z,19.42
2022-10-13T18:36:30.612Z,18.55
2022-10-13T18:39:02.869Z,19.40
2022-10-13T18:41:29.611Z,19.42
2022-10-13T18:43:56.367Z,21.88
2022-10-13T18:46:23.420Z,21.38
2022-10-13T18:48:50.338Z,23.75
2022-10-13T18:51:19.155Z,18.60
2022-10-13T18:53:47.699Z,21.52
2022-10-13T18:56:26.026Z,20.73
2022-10-13T18:58:59.319Z,18.10
2022-10-13T19:01:29.506Z,18.70
2022-10-13T19:03:56.470Z,22.17
2022-10-13T19:06:27.375Z,21.42
2022-10-13T19:09:01.231Z,23.10
2022-10-13T19:11:29.236Z,21.55
2022-10-13T19:13:56.265Z,21.10
2022-10-13T19:16:24.301Z,20.65
2022-10-13T19:18:51.271Z,19.58
2022-10-13T19:21:19.135Z,19.65
2022-10-13T19:23:45.690Z,23.02
2022-10-13T19:26:20.933Z,22.70
2022-10-13T19:28:47.690Z,22.50
2022-10-13T19:31:20.497Z,18.70
2022-10-13T19:33:48.172Z,20.15
2022-10-13T19:36:25.898Z,18.70
2022-10-13T19:38:52.623Z,22.38
2022-10-13T19:41:19.260Z,23.45
2022-10-13T19:43:45.720Z,21.58
2022-10-13T19:46:12.534Z,17.70
2022-10-13T19:48:38.975Z,22.95
2022-10-13T19:51:07.208Z,22.98
2022-10-13T19:53:35.262Z,20.27
2022-10-13T19:56:01.723Z,22.90
2022-10-13T19:58:28.325Z,21.70
2022-10-13T20:00:54.819Z,24.63
2022-10-13T20:03:21.304Z,22.38
2022-10-13T20:05:47.702Z,23.90
2022-10-13T20:08:14.152Z,22.17
2022-10-13T20:10:42.551Z,19.02
2022-10-13T20:15:40.639Z,19.05
2022-10-13T20:18:08.445Z,19.13
2022-10-13T20:20:36.195Z,21.17
2022-10-13T20:23:02.648Z,24.98
2022-10-13T20:25:29.046Z,23.38
2022-10-13T20:27:55.494Z,28.50
2022-10-13T20:30:22.078Z,26.52
2022-10-13T20:32:48.486Z,24.50
2022-10-13T20:35:14.914Z,20.30
2022-10-13T20:37:41.371Z,18.95
2022-10-13T20:40:08.283Z,26.42
2022-10-13T20:42:34.727Z,20.00
2022-10-13T20:45:01.200Z,24.35
2022-10-13T20:47:27.631Z,23.00
2022-10-13T20:49:54.048Z,26.05
2022-10-13T20:52:20.438Z,25.90
2022-10-13T20:54:46.883Z,22.20
2022-10-13T20:57:13.320Z,19.92
2022-10-13T20:59:39.753Z,21.35
2022-10-13T21:02:06.534Z,24.50
2022-10-13T21:04:33.050Z,20.90
2022-10-13T21:06:59.514Z,20.02
2022-10-13T21:09:25.989Z,24.55
2022-10-13T21:11:52.392Z,20.27
2022-10-13T21:14:18.796Z,20.48
2022-10-13T21:16:45.182Z,22.55
2022-10-13T21:19:11.692Z,24.42
2022-10-13T21:21:38.218Z,21.80
2022-10-13T21:24:06.939Z,23.90
2022-10-13T21:26:34.653Z,22.83
2022-10-13T21:29:01.533Z,20.80
2022-10-13T21:31:28.998Z,25.27
2022-10-13T21:33:55.915Z,21.17
2022-10-13T21:36:23.832Z,22.70
2022-10-13T21:38:53.576Z,24.17
2022-10-13T21:41:20.380Z,20.75
2022-10-13T21:43:47.106Z,25.27
2022-10-13T21:46:15.017Z,23.38
2022-10-13T21:48:42.238Z,24.80
2022-10-13T21:51:23.296Z,26.60
2022-10-13T21:53:52.408Z,24.98
2022-10-13T21:56:19.186Z,25.00
2022-10-13T21:58:46.145Z,23.02
2022-10-13T22:01:12.822Z,22.23
2022-10-13T22:03:41.100Z,21.63
2022-10-13T22:06:14.621Z,20.40
2022-10-13T22:08:46.413Z,22.17
2022-10-13T22:11:13.491Z,25.17
2022-10-13T22:13:40.034Z,21.67
2022-10-13T22:16:15.578Z,22.70
2022-10-13T22:18:42.829Z,21.15
2022-10-13T22:21:13.705Z,26.92
2022-10-13T22:23:40.195Z,33.40
2022-10-13T22:26:08.204Z,22.05
2022-10-13T22:28:37.230Z,21.67
2022-10-13T22:31:12.201Z,24.20
2022-10-13T22:33:39.759Z,23.88
2022-10-13T22:36:17.382Z,20.50
2022-10-13T22:38:48.614Z,22.80
2022-10-13T22:41:16.743Z,22.40
2022-10-13T22:43:44.440Z,30.23
2022-10-13T22:46:15.947Z,24.50
2022-10-13T22:48:42.885Z,20.45
2022-10-13T22:51:10.472Z,24.10
2022-10-13T22:53:37.483Z,25.42
2022-10-13T22:56:09.261Z,21.80
2022-10-13T22:58:36.143Z,22.25
2022-10-13T23:01:11.460Z,26.67
2022-10-13T23:03:38.800Z,24.00
2022-10-13T23:06:06.714Z,30.02
2022-10-13T23:08:34.023Z,24.40
2022-10-13T23:11:00.455Z,32.15
2022-10-13T23:13:26.953Z,23.65
2022-10-13T23:15:53.378Z,23.23
2022-10-13T23:18:19.772Z,26.92
2022-10-13T23:20:46.224Z,20.92
2022-10-13T23:23:12.620Z,22.10
2022-10-13T23:25:39.014Z,22.17
2022-10-13T23:28:05.436Z,21.55
2022-10-13T23:30:31.884Z,26.02
2022-10-13T23:32:58.336Z,23.63
2022-10-13T23:35:24.897Z,24.05
2022-10-13T23:37:54.197Z,25.63
2022-10-13T23:40:20.784Z,20.20
2022-10-13T23:42:47.672Z,20.95
2022-10-13T23:45:14.307Z,23.08
2022-10-13T23:47:40.723Z,23.52
2022-10-13T23:50:07.379Z,26.35
2022-10-13T23:52:33.810Z,21.23
2022-10-13T23:55:00.309Z,24.42
2022-10-13T23:57:26.706Z,20.65
2022-10-13T23:59:53.113Z,23.15
